Terminal Aerodrome Forecast
Issued by NWS New Orleans/Baton Rouge, LA

Home | Current Version | Previous Version | Text Only | Print | Product List | Glossary On
Versions: 1 2 3 4 5 6 7 8 9 10 11 12 13 14 15 16 17 18 19 20 21 22 23 24 25
000
FTUS44 KLIX 040529
TAFNEW
TAF
KNEW 040529Z 0406/0506 12006KT P6SM FEW035
     FM041400 10010KT P6SM SCT025
     FM041600 12015KT P6SM BKN040
     FM050000 12010KT P6SM FEW050 BKN250=

USA.gov is the U.S. government's official web portal to all federal, state and local government web resources and services.